Time;durP1;ratioP1;P1;durP2;ratioP2;P2;SDS_P1;SDS_P2;PMS_P1;PMS_P2;Temp;Humidity;BMP_temperature;BMP_pressure;BME280_temperature;BME280_humidity;BME280_pressure;Samples;Min_cycle;Max_cycle;Signal;HPM_P1;HPM_P2
2022/11/12 00:00:13;;;;;;;;;;;4.70;99.90;;;;;;5031233;28;20004;-68
2022/11/12 00:02:41;;;;;;;;;;;4.60;99.90;;;;;;5027571;28;19949;-68
2022/11/12 00:05:08;;;;;;;;;;;4.70;99.90;;;;;;5024138;28;19957;-68
2022/11/12 00:07:34;;;;;;;;;;;4.60;99.90;;;;;;5024412;28;19993;-69
2022/11/12 00:10:01;;;;;;;;;;;4.60;99.90;;;;;;5023664;28;19948;-69
2022/11/12 00:12:28;;;;;;;;;;;4.60;99.90;;;;;;5024378;28;19960;-69
2022/11/12 00:14:54;;;;;;;;;;;4.60;99.90;;;;;;5031325;28;19996;-69
2022/11/12 00:17:21;;;;;;;;;;;4.60;99.90;;;;;;5038212;28;19948;-69
2022/11/12 00:19:49;;;;;;;;;;;4.60;99.90;;;;;;5043932;28;19993;-69
2022/11/12 00:22:16;;;;;;;;;;;4.60;99.90;;;;;;5044070;28;19991;-69
2022/11/12 00:24:42;;;;;;;;;;;4.60;99.90;;;;;;5043820;28;20178;-69
2022/11/12 00:27:09;;;;;;;;;;;4.50;99.90;;;;;;5043671;28;19992;-68
2022/11/12 00:29:37;;;;;;;;;;;4.50;99.90;;;;;;5039042;28;19963;-69
2022/11/12 00:32:04;;;;;;;;;;;4.50;99.90;;;;;;5027617;28;19963;-68
2022/11/12 00:34:31;;;;;;;;;;;4.50;99.90;;;;;;5043194;28;19996;-69
2022/11/12 00:36:59;;;;;;;;;;;4.50;99.90;;;;;;5043711;28;19959;-68
2022/11/12 00:39:26;;;;;;;;;;;4.40;99.90;;;;;;5042949;28;19968;-68
2022/11/12 00:41:52;;;;;;;;;;;4.30;99.90;;;;;;5043657;28;19988;-69
2022/11/12 00:44:19;;;;;;;;;;;4.30;99.90;;;;;;5038490;28;19984;-69
2022/11/12 00:46:45;;;;;;;;;;;4.30;99.90;;;;;;5035034;28;19984;-69
2022/11/12 00:49:12;;;;;;;;;;;4.30;99.90;;;;;;5043441;28;19967;-68
2022/11/12 00:51:39;;;;;;;;;;;4.20;99.90;;;;;;5043512;28;19989;-69
2022/11/12 00:54:07;;;;;;;;;;;4.20;99.90;;;;;;5003995;28;19992;-69
2022/11/12 00:56:34;;;;;;;;;;;4.10;99.90;;;;;;5003499;28;19989;-69
2022/11/12 00:59:00;;;;;;;;;;;4.10;99.90;;;;;;5012359;28;20049;-68
2022/11/12 01:01:27;;;;;;;;;;;4.10;99.90;;;;;;5023493;28;19922;-66
2022/11/12 01:03:54;;;;;;;;;;;4.10;99.90;;;;;;5014216;28;19957;-69
2022/11/12 01:06:21;;;;;;;;;;;4.00;99.90;;;;;;5023288;28;19975;-69
2022/11/12 01:08:48;;;;;;;;;;;4.00;99.90;;;;;;5023314;28;19957;-69
2022/11/12 01:11:17;;;;;;;;;;;4.00;99.90;;;;;;5023549;28;19988;-68
2022/11/12 01:13:44;;;;;;;;;;;4.00;99.90;;;;;;5023532;28;19957;-69
2022/11/12 01:16:12;;;;;;;;;;;4.00;99.90;;;;;;5034679;28;19988;-69
2022/11/12 01:18:39;;;;;;;;;;;3.90;99.90;;;;;;5043162;28;19963;-69
2022/11/12 01:21:07;;;;;;;;;;;3.90;99.90;;;;;;5042970;28;19995;-68
2022/11/12 01:23:34;;;;;;;;;;;3.90;99.90;;;;;;5043183;28;20187;-69
2022/11/12 01:26:03;;;;;;;;;;;3.90;99.90;;;;;;5042947;28;19968;-69
2022/11/12 01:28:31;;;;;;;;;;;3.80;99.90;;;;;;5039299;28;19960;-68
2022/11/12 01:30:58;;;;;;;;;;;3.80;99.90;;;;;;5034141;28;19972;-69
2022/11/12 01:33:24;;;;;;;;;;;3.80;99.90;;;;;;5043119;28;20181;-69
2022/11/12 01:35:51;;;;;;;;;;;3.70;99.90;;;;;;5042776;28;19984;-67
2022/11/12 01:38:18;;;;;;;;;;;3.70;99.90;;;;;;5043082;28;19952;-69
2022/11/12 01:40:44;;;;;;;;;;;3.70;99.90;;;;;;5043108;28;20140;-69
2022/11/12 01:43:12;;;;;;;;;;;3.70;99.90;;;;;;5041885;28;20017;-69
2022/11/12 01:45:42;;;;;;;;;;;3.60;99.90;;;;;;5080724;22;19927;-93
2022/11/12 01:48:14;;;;;;;;;;;3.70;99.90;;;;;;5046601;28;19945;-92
2022/11/12 01:50:41;;;;;;;;;;;3.60;99.90;;;;;;5048256;28;19921;-92
2022/11/12 01:53:10;;;;;;;;;;;3.60;99.90;;;;;;5038737;28;19945;-93
2022/11/12 01:55:37;;;;;;;;;;;3.60;99.90;;;;;;5014550;28;19945;-92
2022/11/12 01:58:05;;;;;;;;;;;3.50;99.90;;;;;;5012171;28;19980;-93
2022/11/12 02:00:32;;;;;;;;;;;3.50;99.90;;;;;;5020473;28;19984;-92
2022/11/12 02:03:01;;;;;;;;;;;3.40;99.90;;;;;;5031404;28;20186;-92
2022/11/12 02:05:29;;;;;;;;;;;3.50;99.90;;;;;;5031825;28;20246;-92
2022/11/12 02:07:56;;;;;;;;;;;3.50;99.90;;;;;;5031961;28;19929;-92
2022/11/12 02:10:23;;;;;;;;;;;3.50;99.90;;;;;;5032155;28;19922;-92
2022/11/12 02:15:35;;;;;;;;;;;3.50;99.90;;;;;;5032172;28;19944;-93
2022/11/12 02:18:03;;;;;;;;;;;3.50;99.90;;;;;;5031750;28;20357;-92
2022/11/12 02:20:32;;;;;;;;;;;3.50;99.90;;;;;;5031122;28;19932;-93
2022/11/12 02:23:01;;;;;;;;;;;3.50;99.90;;;;;;5031708;28;19929;-93
2022/11/12 02:25:28;;;;;;;;;;;3.50;99.90;;;;;;5030018;28;19941;-91
2022/11/12 02:27:55;;;;;;;;;;;3.50;99.90;;;;;;5029885;28;19929;-92
2022/11/12 02:30:31;;;;;;;;;;;3.60;99.90;;;;;;5030682;28;19926;-91
2022/11/12 02:32:58;;;;;;;;;;;3.60;99.90;;;;;;5030574;28;19977;-92
2022/11/12 02:35:25;;;;;;;;;;;3.50;99.90;;;;;;5030711;28;19929;-92
2022/11/12 02:37:51;;;;;;;;;;;3.60;99.90;;;;;;5031433;28;19984;-92
2022/11/12 02:40:20;;;;;;;;;;;3.50;99.90;;;;;;5031334;28;19929;-92
2022/11/12 02:42:46;;;;;;;;;;;3.50;99.90;;;;;;5031623;28;19921;-92
2022/11/12 02:45:13;;;;;;;;;;;3.50;99.90;;;;;;5031112;28;20127;-93
2022/11/12 02:47:40;;;;;;;;;;;3.50;99.90;;;;;;5031496;28;19921;-93
2022/11/12 02:50:07;;;;;;;;;;;3.60;99.90;;;;;;5030779;28;19948;-92
2022/11/12 02:52:34;;;;;;;;;;;3.50;99.90;;;;;;5030865;28;19929;-92
2022/11/12 02:55:01;;;;;;;;;;;3.50;99.90;;;;;;5018998;28;19922;-92
2022/11/12 02:57:29;;;;;;;;;;;3.60;99.90;;;;;;5012924;28;19950;-93
2022/11/12 02:59:56;;;;;;;;;;;3.60;99.90;;;;;;5016308;28;19944;-92
2022/11/12 03:02:23;;;;;;;;;;;3.60;99.90;;;;;;5016711;28;19922;-93
2022/11/12 03:04:49;;;;;;;;;;;3.60;99.90;;;;;;5030581;28;19941;-93
2022/11/12 03:07:16;;;;;;;;;;;3.60;99.90;;;;;;5030084;28;19944;-94
2022/11/12 03:09:43;;;;;;;;;;;3.70;99.90;;;;;;5030782;28;19959;-93
2022/11/12 03:12:10;;;;;;;;;;;3.60;99.90;;;;;;5030873;28;19945;-93
2022/11/12 03:14:38;;;;;;;;;;;3.70;99.90;;;;;;5030687;28;19921;-93
2022/11/12 03:17:05;;;;;;;;;;;3.60;99.90;;;;;;5031712;28;20135;-93
2022/11/12 03:19:31;;;;;;;;;;;3.60;99.90;;;;;;5031687;28;19921;-92
2022/11/12 03:21:58;;;;;;;;;;;3.60;99.90;;;;;;5028498;28;19928;-92
2022/11/12 03:24:25;;;;;;;;;;;3.60;99.90;;;;;;5014523;28;19929;-93
2022/11/12 03:26:51;;;;;;;;;;;3.60;99.90;;;;;;5027977;28;19922;-92
2022/11/12 03:29:18;;;;;;;;;;;3.60;99.90;;;;;;5029194;28;19921;-93
2022/11/12 03:31:46;;;;;;;;;;;3.60;99.90;;;;;;5029009;28;19925;-92
2022/11/12 03:34:13;;;;;;;;;;;3.60;99.90;;;;;;5028705;28;19951;-92
2022/11/12 03:36:40;;;;;;;;;;;3.60;99.90;;;;;;5027104;28;19929;-92
2022/11/12 03:39:07;;;;;;;;;;;3.60;99.90;;;;;;5028227;28;19959;-92
2022/11/12 03:41:33;;;;;;;;;;;3.70;99.90;;;;;;5027940;28;19921;-92
2022/11/12 03:44:00;;;;;;;;;;;3.70;99.90;;;;;;5027697;28;19921;-92
2022/11/12 03:46:27;;;;;;;;;;;3.70;99.90;;;;;;5027000;28;19922;-92
2022/11/12 03:48:55;;;;;;;;;;;3.70;99.90;;;;;;5027594;28;19965;-92
2022/11/12 03:51:22;;;;;;;;;;;3.70;99.90;;;;;;5027246;28;19944;-91
2022/11/12 03:53:49;;;;;;;;;;;3.70;99.90;;;;;;5019224;28;19956;-92
2022/11/12 03:56:15;;;;;;;;;;;3.70;99.90;;;;;;5014362;28;20273;-92
2022/11/12 03:58:42;;;;;;;;;;;3.70;99.90;;;;;;5008946;28;19921;-92
2022/11/12 04:01:09;;;;;;;;;;;3.70;99.90;;;;;;5028065;28;20031;-92
2022/11/12 04:03:35;;;;;;;;;;;3.70;99.90;;;;;;5019740;28;19928;-93
2022/11/12 04:08:48;;;;;;;;;;;3.70;99.90;;;;;;5028658;28;19993;-92
2022/11/12 04:11:17;;;;;;;;;;;3.60;99.90;;;;;;5027698;28;20079;-92
2022/11/12 04:13:46;;;;;;;;;;;3.60;99.90;;;;;;5027406;28;19929;-92
2022/11/12 04:21:56;;;;;;;;;;;3.60;99.90;;;;;;5029281;28;20254;-92
2022/11/12 04:27:10;;;;;;;;;;;3.60;99.90;;;;;;5029488;28;19940;-93
2022/11/12 04:32:21;;;;;;;;;;;3.50;99.90;;;;;;5027898;28;20254;-92
2022/11/12 04:34:48;;;;;;;;;;;3.50;99.90;;;;;;5026888;28;19929;-93
2022/11/12 04:37:16;;;;;;;;;;;3.50;99.90;;;;;;5027778;28;19981;-92
2022/11/12 04:39:43;;;;;;;;;;;3.50;99.90;;;;;;5027404;28;19936;-92
2022/11/12 04:47:39;;;;;;;;;;;3.40;99.90;;;;;;5029199;28;19975;-92
2022/11/12 04:50:07;;;;;;;;;;;3.40;99.90;;;;;;5028026;28;19921;-91
2022/11/12 04:52:35;;;;;;;;;;;3.40;99.90;;;;;;5028984;28;19916;-93
2022/11/12 04:55:02;;;;;;;;;;;3.40;99.90;;;;;;5026123;28;19928;-91
2022/11/12 04:57:29;;;;;;;;;;;3.40;99.90;;;;;;5031882;28;19921;-92
2022/11/12 04:59:56;;;;;;;;;;;3.40;99.90;;;;;;5030927;28;19921;-92
2022/11/12 05:02:22;;;;;;;;;;;3.40;99.90;;;;;;5024742;28;19922;-92
2022/11/12 05:04:49;;;;;;;;;;;3.50;99.90;;;;;;5028265;28;19921;-92
2022/11/12 05:07:16;;;;;;;;;;;3.50;99.90;;;;;;5029368;28;19928;-92
2022/11/12 05:09:44;;;;;;;;;;;3.40;99.90;;;;;;5029543;28;19980;-92
2022/11/12 05:12:11;;;;;;;;;;;3.40;99.90;;;;;;5029758;28;19926;-93
2022/11/12 05:14:38;;;;;;;;;;;3.40;99.90;;;;;;5029528;28;19953;-91
2022/11/12 05:17:05;;;;;;;;;;;3.40;99.90;;;;;;5029614;28;20247;-91
2022/11/12 05:19:33;;;;;;;;;;;3.40;99.90;;;;;;5029405;28;20259;-93
2022/11/12 05:22:09;;;;;;;;;;;3.40;99.90;;;;;;5028155;28;19922;-92
2022/11/12 05:24:37;;;;;;;;;;;3.40;99.90;;;;;;5028449;28;19960;-93
2022/11/12 05:27:07;;;;;;;;;;;3.40;99.90;;;;;;5030495;28;19949;-92
2022/11/12 05:29:34;;;;;;;;;;;3.30;99.90;;;;;;5031964;28;19922;-91
2022/11/12 05:32:01;;;;;;;;;;;3.30;99.90;;;;;;5032164;28;19945;-92
2022/11/12 05:34:27;;;;;;;;;;;3.30;99.90;;;;;;5032364;28;19921;-92
2022/11/12 05:36:54;;;;;;;;;;;3.30;99.90;;;;;;5031576;28;19945;-93
2022/11/12 05:39:21;;;;;;;;;;;3.30;99.90;;;;;;5031530;28;19921;-93
2022/11/12 05:41:48;;;;;;;;;;;3.30;99.90;;;;;;5031389;28;19930;-92
2022/11/12 05:44:16;;;;;;;;;;;3.30;99.90;;;;;;5031610;28;19945;-91
2022/11/12 05:46:43;;;;;;;;;;;3.30;99.90;;;;;;5031477;28;19945;-92
2022/11/12 05:49:10;;;;;;;;;;;3.30;99.90;;;;;;5032986;28;19929;-92
2022/11/12 05:51:36;;;;;;;;;;;3.30;99.90;;;;;;5032104;28;19921;-92
2022/11/12 05:54:03;;;;;;;;;;;3.20;99.90;;;;;;5033456;28;19921;-92
2022/11/12 05:56:30;;;;;;;;;;;3.20;99.90;;;;;;5034833;28;19956;-92
2022/11/12 06:05:11;;;;;;;;;;;3.10;99.90;;;;;;5013336;28;19910;-92
2022/11/12 06:07:38;;;;;;;;;;;3.10;99.90;;;;;;5013274;28;19922;-92
2022/11/12 06:43:45;;;;;;;;;;;2.80;99.90;;;;;;5024332;28;19921;-70
2022/11/12 06:46:12;;;;;;;;;;;2.80;99.90;;;;;;5025191;28;19959;-69
2022/11/12 06:48:39;;;;;;;;;;;2.80;99.90;;;;;;5026013;28;19993;-67
2022/11/12 06:51:07;;;;;;;;;;;2.80;99.90;;;;;;5023551;28;19921;-67
2022/11/12 06:53:41;;;;;;;;;;;2.80;99.90;;;;;;5023374;28;19956;-67
2022/11/12 06:56:08;;;;;;;;;;;2.80;99.90;;;;;;5025284;28;19996;-67
2022/11/12 06:58:35;;;;;;;;;;;2.80;99.90;;;;;;5025506;28;19957;-67
2022/11/12 07:01:07;;;;;;;;;;;2.80;99.90;;;;;;5020219;28;19955;-67
2022/11/12 07:03:33;;;;;;;;;;;2.80;99.90;;;;;;5017640;28;19987;-67
2022/11/12 07:06:03;;;;;;;;;;;2.80;99.90;;;;;;5024722;28;19921;-67
2022/11/12 07:08:30;;;;;;;;;;;2.80;99.90;;;;;;5025380;28;19922;-67
2022/11/12 07:10:57;;;;;;;;;;;2.80;99.90;;;;;;5025699;28;19959;-68
2022/11/12 07:13:24;;;;;;;;;;;2.80;99.90;;;;;;5025332;28;19921;-68
2022/11/12 07:15:51;;;;;;;;;;;2.90;99.90;;;;;;5024726;28;19990;-67
2022/11/12 07:18:19;;;;;;;;;;;2.90;99.90;;;;;;5025091;28;20264;-68
2022/11/12 07:20:57;;;;;;;;;;;2.90;99.90;;;;;;5024373;28;20263;-67
2022/11/12 07:23:23;;;;;;;;;;;2.90;99.90;;;;;;5025145;28;20295;-67
2022/11/12 07:25:55;;;;;;;;;;;3.00;99.90;;;;;;5024658;28;19952;-67
2022/11/12 07:28:21;;;;;;;;;;;3.00;99.90;;;;;;5024765;28;20205;-68
2022/11/12 07:30:54;;;;;;;;;;;3.00;99.90;;;;;;5025123;28;19989;-67
2022/11/12 07:33:22;;;;;;;;;;;3.00;99.90;;;;;;5025191;28;19976;-67
2022/11/12 07:35:49;;;;;;;;;;;3.00;99.90;;;;;;5024298;28;20000;-67
2022/11/12 07:38:15;;;;;;;;;;;3.00;99.90;;;;;;5014434;28;20265;-68
2022/11/12 07:40:42;;;;;;;;;;;3.10;99.90;;;;;;5021676;28;19929;-67
2022/11/12 07:43:08;;;;;;;;;;;3.10;99.90;;;;;;5024785;28;19980;-68
2022/11/12 07:45:35;;;;;;;;;;;3.20;99.90;;;;;;5023848;28;20276;-67
2022/11/12 07:48:02;;;;;;;;;;;3.20;99.90;;;;;;5024477;28;19996;-67
2022/11/12 07:50:30;;;;;;;;;;;3.20;99.90;;;;;;5024680;28;19953;-68
2022/11/12 07:52:58;;;;;;;;;;;3.30;99.90;;;;;;5024752;28;19992;-68
2022/11/12 07:55:24;;;;;;;;;;;3.30;99.90;;;;;;5023719;28;20246;-67
2022/11/12 07:57:52;;;;;;;;;;;3.30;99.90;;;;;;5024551;28;19952;-68
2022/11/12 08:00:19;;;;;;;;;;;3.40;99.90;;;;;;5012237;28;19964;-67
2022/11/12 08:02:45;;;;;;;;;;;3.40;99.90;;;;;;5058699;23;19995;-67
2022/11/12 08:05:12;;;;;;;;;;;3.50;99.90;;;;;;5065746;28;19953;-67
2022/11/12 08:07:40;;;;;;;;;;;3.50;99.90;;;;;;5044453;28;19928;-68
2022/11/12 08:10:07;;;;;;;;;;;3.60;99.90;;;;;;5044380;28;19963;-67
2022/11/12 08:12:34;;;;;;;;;;;3.70;99.90;;;;;;5043713;28;19957;-67
2022/11/12 08:15:01;;;;;;;;;;;3.70;99.90;;;;;;5043624;28;19988;-68
2022/11/12 08:17:31;;;;;;;;;;;3.80;99.90;;;;;;5044136;28;19927;-66
2022/11/12 08:19:57;;;;;;;;;;;3.80;99.90;;;;;;5043735;28;19921;-67
2022/11/12 08:22:24;;;;;;;;;;;3.90;99.90;;;;;;5043960;28;19985;-67
2022/11/12 08:24:52;;;;;;;;;;;4.00;99.90;;;;;;5043799;28;20165;-67
2022/11/12 08:27:18;;;;;;;;;;;4.10;99.90;;;;;;5044180;28;20179;-68
2022/11/12 08:29:45;;;;;;;;;;;4.20;99.90;;;;;;5043600;28;19921;-67
2022/11/12 08:32:12;;;;;;;;;;;4.30;99.90;;;;;;5046083;28;19953;-67
2022/11/12 08:34:40;;;;;;;;;;;4.30;99.90;;;;;;5061998;28;19984;-67
2022/11/12 08:37:06;;;;;;;;;;;4.30;99.90;;;;;;5062018;28;20099;-67
2022/11/12 08:39:33;;;;;;;;;;;4.40;99.90;;;;;;5062920;28;20254;-67
2022/11/12 08:42:01;;;;;;;;;;;4.40;99.90;;;;;;5063665;28;19928;-68
2022/11/12 08:44:28;;;;;;;;;;;4.50;99.90;;;;;;5062690;28;20254;-67
2022/11/12 08:46:54;;;;;;;;;;;4.50;99.90;;;;;;5063288;28;19952;-68
2022/11/12 08:49:21;;;;;;;;;;;4.60;99.90;;;;;;5063269;28;19995;-67
2022/11/12 08:51:47;;;;;;;;;;;4.60;99.90;;;;;;5063229;28;20267;-67
2022/11/12 08:54:14;;;;;;;;;;;4.70;99.90;;;;;;5062695;28;19985;-67
2022/11/12 08:56:41;;;;;;;;;;;4.70;99.90;;;;;;5063323;28;19983;-67
2022/11/12 08:59:09;;;;;;;;;;;4.80;99.90;;;;;;5063395;28;19935;-67
2022/11/12 09:01:35;;;;;;;;;;;4.90;99.90;;;;;;5062213;28;19980;-67
2022/11/12 09:04:02;;;;;;;;;;;5.00;99.90;;;;;;5058412;28;19988;-68
2022/11/12 09:06:28;;;;;;;;;;;5.00;99.90;;;;;;5061999;28;19949;-67
2022/11/12 09:08:55;;;;;;;;;;;5.00;99.90;;;;;;5062776;28;19984;-67
2022/11/12 09:11:22;;;;;;;;;;;5.10;99.90;;;;;;5063166;28;19921;-68
2022/11/12 09:13:49;;;;;;;;;;;5.10;99.90;;;;;;5060746;28;19929;-67
2022/11/12 09:16:17;;;;;;;;;;;5.20;99.90;;;;;;5062145;28;19927;-67
2022/11/12 09:18:46;;;;;;;;;;;5.30;99.90;;;;;;5060370;28;19921;-67
2022/11/12 09:21:12;;;;;;;;;;;5.30;99.90;;;;;;5062730;28;19987;-67
2022/11/12 09:23:39;;;;;;;;;;;5.40;99.90;;;;;;5062818;28;19952;-68
2022/11/12 09:26:06;;;;;;;;;;;5.50;99.90;;;;;;5061290;28;19988;-67
2022/11/12 09:28:35;;;;;;;;;;;5.60;99.90;;;;;;5062204;28;19976;-67
2022/11/12 09:31:02;;;;;;;;;;;5.70;99.90;;;;;;5063039;28;19932;-68
2022/11/12 09:33:31;;;;;;;;;;;5.70;99.90;;;;;;5062942;28;19988;-67
2022/11/12 09:36:00;;;;;;;;;;;5.80;99.90;;;;;;5062829;28;20181;-66
2022/11/12 09:38:27;;;;;;;;;;;5.90;99.90;;;;;;5062528;28;20251;-66
2022/11/12 09:41:01;;;;;;;;;;;6.00;99.90;;;;;;5062980;28;19956;-66
2022/11/12 09:43:29;;;;;;;;;;;6.20;99.90;;;;;;5062979;28;19963;-65
2022/11/12 09:45:56;;;;;;;;;;;6.30;99.90;;;;;;5062322;28;20298;-66
2022/11/12 09:48:26;;;;;;;;;;;6.40;99.90;;;;;;5062587;28;19960;-66
2022/11/12 09:50:57;;;;;;;;;;;6.50;99.90;;;;;;5062337;28;19952;-66
2022/11/12 09:53:29;;;;;;;;;;;6.60;99.90;;;;;;5060966;28;20176;-66
2022/11/12 09:55:56;;;;;;;;;;;6.70;99.90;;;;;;5061709;28;20160;-66
2022/11/12 09:58:24;;;;;;;;;;;6.80;99.90;;;;;;5062315;28;19928;-66
2022/11/12 10:00:53;;;;;;;;;;;6.90;99.90;;;;;;5046482;28;19980;-67
2022/11/12 10:03:24;;;;;;;;;;;7.00;99.90;;;;;;5054280;28;20191;-67
2022/11/12 10:05:56;;;;;;;;;;;7.20;99.90;;;;;;5062323;28;19999;-66
2022/11/12 10:08:28;;;;;;;;;;;7.30;99.90;;;;;;5062846;28;19963;-66
2022/11/12 10:11:01;;;;;;;;;;;7.40;99.90;;;;;;5062677;28;19987;-66
2022/11/12 10:13:35;;;;;;;;;;;7.50;99.90;;;;;;5066148;28;19924;-66
2022/11/12 10:19:04;;;;;;;;;;;7.70;99.90;;;;;;5065928;28;19935;-66
2022/11/12 10:21:33;;;;;;;;;;;7.90;99.90;;;;;;5066248;28;19986;-67
2022/11/12 10:24:02;;;;;;;;;;;8.00;99.90;;;;;;5066290;28;19920;-67
2022/11/12 10:26:31;;;;;;;;;;;8.20;99.90;;;;;;5065947;28;19952;-66
2022/11/12 10:29:00;;;;;;;;;;;8.30;99.90;;;;;;5064367;28;19991;-66
2022/11/12 10:31:27;;;;;;;;;;;8.40;99.90;;;;;;5058117;28;19984;-66
2022/11/12 10:34:02;;;;;;;;;;;8.60;99.90;;;;;;5063236;28;20279;-66
2022/11/12 10:36:29;;;;;;;;;;;8.70;99.90;;;;;;5064959;28;19992;-67
2022/11/12 10:38:56;;;;;;;;;;;8.90;99.90;;;;;;5065183;28;19963;-68
2022/11/12 10:41:25;;;;;;;;;;;9.10;99.90;;;;;;5064861;28;20008;-66
2022/11/12 10:43:56;;;;;;;;;;;9.30;99.90;;;;;;5065946;28;19956;-67
2022/11/12 10:46:23;;;;;;;;;;;9.40;99.90;;;;;;5065211;28;19971;-67
2022/11/12 10:48:53;;;;;;;;;;;9.50;99.90;;;;;;5065678;28;19987;-67
2022/11/12 10:51:25;;;;;;;;;;;9.60;99.90;;;;;;5065613;28;19983;-66
2022/11/12 10:53:52;;;;;;;;;;;9.70;99.90;;;;;;5065534;28;19955;-66
2022/11/12 10:56:24;;;;;;;;;;;9.90;99.90;;;;;;5065329;28;19984;-67
2022/11/12 10:59:06;;;;;;;;;;;9.90;99.90;;;;;;5065482;28;19920;-66
2022/11/12 11:01:34;;;;;;;;;;;10.00;99.90;;;;;;5063687;28;19963;-66
2022/11/12 11:04:00;;;;;;;;;;;10.10;99.90;;;;;;5063218;28;19992;-67
2022/11/12 11:06:27;;;;;;;;;;;10.20;99.90;;;;;;5057260;28;19984;-66
2022/11/12 11:09:07;;;;;;;;;;;10.30;99.90;;;;;;5062720;28;19988;-66
2022/11/12 11:11:34;;;;;;;;;;;10.50;99.90;;;;;;5065101;28;20228;-66
2022/11/12 11:14:20;;;;;;;;;;;10.60;99.90;;;;;;5070492;28;19984;-66
2022/11/12 11:16:51;;;;;;;;;;;10.60;99.90;;;;;;5063246;28;19984;-66
2022/11/12 11:19:18;;;;;;;;;;;10.70;99.90;;;;;;5063887;28;19992;-66
2022/11/12 11:22:03;;;;;;;;;;;10.70;99.90;;;;;;5064867;28;19952;-66
2022/11/12 11:24:35;;;;;;;;;;;10.80;99.90;;;;;;5063535;28;19992;-69
2022/11/12 11:27:03;;;;;;;;;;;10.90;99.90;;;;;;5061617;28;19929;-67
2022/11/12 11:29:52;;;;;;;;;;;11.00;99.90;;;;;;5064419;28;20173;-67
2022/11/12 11:32:27;;;;;;;;;;;11.00;99.90;;;;;;5044846;28;20188;-67
2022/11/12 11:35:01;;;;;;;;;;;11.10;99.90;;;;;;5044673;28;19984;-66
2022/11/12 11:37:28;;;;;;;;;;;11.20;99.90;;;;;;5044871;28;19952;-67
2022/11/12 11:40:01;;;;;;;;;;;11.30;99.90;;;;;;5043671;28;20119;-68
2022/11/12 11:42:39;;;;;;;;;;;11.30;99.90;;;;;;5044713;28;19925;-68
2022/11/12 11:45:09;;;;;;;;;;;11.30;99.90;;;;;;5044483;28;19988;-67
2022/11/12 11:47:42;;;;;;;;;;;11.40;99.90;;;;;;5044633;28;19959;-67
2022/11/12 11:50:19;;;;;;;;;;;11.50;99.90;;;;;;5044667;28;19988;-67
2022/11/12 11:52:49;;;;;;;;;;;11.50;99.90;;;;;;5044250;28;20220;-68
2022/11/12 11:55:27;;;;;;;;;;;11.60;99.90;;;;;;5044210;28;20287;-66
2022/11/12 11:57:58;;;;;;;;;;;11.70;99.90;;;;;;5043077;28;19996;-68
2022/11/12 12:00:30;;;;;;;;;;;11.80;99.90;;;;;;5058421;28;19987;-67
2022/11/12 12:03:05;;;;;;;;;;;11.90;99.90;;;;;;5051164;28;19979;-67
2022/11/12 12:05:36;;;;;;;;;;;11.90;99.90;;;;;;5062363;28;19987;-67
2022/11/12 12:08:04;;;;;;;;;;;12.00;99.90;;;;;;5064105;28;19983;-68
2022/11/12 12:10:39;;;;;;;;;;;12.00;99.90;;;;;;5064100;28;19987;-68
2022/11/12 12:13:09;;;;;;;;;;;12.10;99.90;;;;;;5064387;28;19929;-67
2022/11/12 12:15:47;;;;;;;;;;;12.10;99.90;;;;;;5063328;28;19996;-67
2022/11/12 12:18:21;;;;;;;;;;;12.20;99.90;;;;;;5044373;28;20179;-67
2022/11/12 12:20:50;;;;;;;;;;;12.20;99.90;;;;;;5064053;28;20166;-67
2022/11/12 12:23:25;;;;;;;;;;;12.20;99.90;;;;;;5057265;28;19927;-67
2022/11/12 12:25:53;;;;;;;;;;;12.20;99.90;;;;;;5063001;28;20075;-67
2022/11/12 12:28:28;;;;;;;;;;;12.20;99.90;;;;;;5062116;28;19989;-68
2022/11/12 12:30:58;;;;;;;;;;;12.10;99.90;;;;;;5063452;28;19992;-66
2022/11/12 12:33:28;;;;;;;;;;;12.20;99.90;;;;;;5051154;28;19953;-66
2022/11/12 12:35:58;;;;;;;;;;;12.10;99.90;;;;;;5042783;28;19952;-67
2022/11/12 12:38:26;;;;;;;;;;;12.20;99.90;;;;;;5056408;28;20007;-67
2022/11/12 12:40:57;;;;;;;;;;;12.10;99.90;;;;;;5063644;28;19992;-67
2022/11/12 12:43:27;;;;;;;;;;;12.10;99.90;;;;;;5063658;28;19999;-66
2022/11/12 12:45:54;;;;;;;;;;;12.10;99.90;;;;;;5063279;28;19921;-66
2022/11/12 12:48:22;;;;;;;;;;;12.10;99.90;;;;;;5063481;28;19952;-67
2022/11/12 12:50:51;;;;;;;;;;;12.10;99.90;;;;;;5063024;28;20180;-67
2022/11/12 12:53:30;;;;;;;;;;;12.10;99.90;;;;;;5063458;28;19956;-67
2022/11/12 12:55:57;;;;;;;;;;;12.10;99.90;;;;;;5063153;28;19988;-66
2022/11/12 12:58:26;;;;;;;;;;;12.10;99.90;;;;;;5063029;28;19964;-67
2022/11/12 13:00:54;;;;;;;;;;;12.20;99.90;;;;;;5062714;28;19952;-67
2022/11/12 13:03:39;;;;;;;;;;;12.20;99.90;;;;;;5053990;28;20171;-67
2022/11/12 13:06:07;;;;;;;;;;;12.20;99.90;;;;;;5048569;28;19952;-69
2022/11/12 13:08:36;;;;;;;;;;;12.30;99.90;;;;;;5041629;28;20277;-68
2022/11/12 13:11:02;;;;;;;;;;;12.40;99.90;;;;;;5060947;28;19960;-70
2022/11/12 13:13:30;;;;;;;;;;;12.40;99.90;;;;;;5061587;28;19921;-70
2022/11/12 13:15:58;;;;;;;;;;;12.40;99.90;;;;;;5062785;28;19963;-68
2022/11/12 13:18:43;;;;;;;;;;;12.40;99.90;;;;;;5062601;28;19991;-68
2022/11/12 13:21:12;;;;;;;;;;;12.50;99.90;;;;;;5042990;28;19988;-68
2022/11/12 13:24:04;;;;;;;;;;;12.50;99.90;;;;;;5044433;28;20108;-68
2022/11/12 13:26:48;;;;;;;;;;;12.50;99.90;;;;;;5062343;28;20138;-68
2022/11/12 13:29:19;;;;;;;;;;;12.40;99.90;;;;;;5044167;28;20232;-70
2022/11/12 13:31:45;;;;;;;;;;;12.40;99.90;;;;;;5062872;28;19987;-69
2022/11/12 13:34:13;;;;;;;;;;;12.50;99.90;;;;;;5063277;28;20022;-68
2022/11/12 13:36:54;;;;;;;;;;;12.40;99.90;;;;;;5049941;28;20008;-68
2022/11/12 13:39:22;;;;;;;;;;;12.40;99.90;;;;;;5056043;28;19948;-68
2022/11/12 13:44:39;;;;;;;;;;;12.30;99.90;;;;;;5062259;28;19992;-68
2022/11/12 13:47:06;;;;;;;;;;;12.30;99.90;;;;;;5064414;28;19956;-68
2022/11/12 13:49:35;;;;;;;;;;;12.20;99.90;;;;;;5066904;28;19983;-68
2022/11/12 13:52:05;;;;;;;;;;;12.30;99.90;;;;;;5046838;28;19921;-68
2022/11/12 13:54:33;;;;;;;;;;;12.20;99.90;;;;;;5051536;28;19987;-65
2022/11/12 13:57:13;;;;;;;;;;;12.10;99.90;;;;;;5051047;28;19959;-67
2022/11/12 13:59:40;;;;;;;;;;;12.00;99.90;;;;;;5064509;28;19988;-66
2022/11/12 14:02:16;;;;;;;;;;;12.00;99.90;;;;;;5054202;28;19983;-66
2022/11/12 14:04:43;;;;;;;;;;;12.00;99.90;;;;;;5065836;28;19987;-66
2022/11/12 14:07:17;;;;;;;;;;;11.80;99.90;;;;;;5066392;28;19984;-66
2022/11/12 14:09:54;;;;;;;;;;;11.80;99.90;;;;;;5066401;28;19995;-66
2022/11/12 14:12:41;;;;;;;;;;;11.80;99.90;;;;;;5066426;28;19943;-67
2022/11/12 14:15:14;;;;;;;;;;;11.70;99.90;;;;;;5054343;28;20324;-66
2022/11/12 14:17:46;;;;;;;;;;;11.70;99.90;;;;;;5052475;28;19980;-66
2022/11/12 14:20:21;;;;;;;;;;;11.70;99.90;;;;;;5049516;28;20272;-66
2022/11/12 14:22:49;;;;;;;;;;;11.60;99.90;;;;;;5062005;28;20231;-66
2022/11/12 14:25:18;;;;;;;;;;;11.60;99.90;;;;;;5064037;28;19944;-67
2022/11/12 14:27:44;;;;;;;;;;;11.50;99.90;;;;;;5077611;23;19920;-71
2022/11/12 14:30:12;;;;;;;;;;;11.50;99.90;;;;;;5057419;28;20011;-70
2022/11/12 14:32:40;;;;;;;;;;;11.50;99.90;;;;;;5052754;28;20101;-70
2022/11/12 14:35:39;;;;;;;;;;;11.50;99.90;;;;;;5045548;28;19949;-71
2022/11/12 14:38:13;;;;;;;;;;;11.40;99.90;;;;;;5025991;28;19972;-71
2022/11/12 14:40:43;;;;;;;;;;;11.50;99.90;;;;;;5026301;28;19988;-70
2022/11/12 14:43:17;;;;;;;;;;;11.50;99.90;;;;;;5025786;28;19949;-70
2022/11/12 14:45:47;;;;;;;;;;;11.30;99.90;;;;;;5025625;28;19949;-70
2022/11/12 14:48:14;;;;;;;;;;;11.30;99.90;;;;;;5026030;28;19960;-70
2022/11/12 14:50:41;;;;;;;;;;;11.20;99.90;;;;;;5036975;28;19983;-70
2022/11/12 14:53:11;;;;;;;;;;;11.20;99.90;;;;;;5045719;28;19959;-70
2022/11/12 14:55:41;;;;;;;;;;;11.20;99.90;;;;;;5045440;28;19984;-70
2022/11/12 14:58:12;;;;;;;;;;;11.10;99.90;;;;;;5044787;28;20015;-70
2022/11/12 15:00:40;;;;;;;;;;;11.00;99.90;;;;;;5045500;28;19996;-70
2022/11/12 15:03:10;;;;;;;;;;;11.10;99.90;;;;;;5040429;28;19960;-70
2022/11/12 15:05:52;;;;;;;;;;;11.00;99.90;;;;;;5045438;28;19952;-70
2022/11/12 15:08:27;;;;;;;;;;;11.00;99.90;;;;;;5045397;28;19921;-70
2022/11/12 15:10:56;;;;;;;;;;;10.90;99.90;;;;;;5045473;28;19984;-70
2022/11/12 15:13:23;;;;;;;;;;;10.90;99.90;;;;;;5045037;28;20224;-70
2022/11/12 15:15:52;;;;;;;;;;;10.80;99.90;;;;;;5044458;28;19984;-70
2022/11/12 15:18:19;;;;;;;;;;;10.80;99.90;;;;;;5044886;28;20115;-69
2022/11/12 15:21:01;;;;;;;;;;;10.80;99.90;;;;;;5045022;28;20187;-70
2022/11/12 15:23:27;;;;;;;;;;;10.70;99.90;;;;;;5045230;28;19948;-70
2022/11/12 15:25:59;;;;;;;;;;;10.70;99.90;;;;;;5044735;28;19984;-69
2022/11/12 15:28:26;;;;;;;;;;;10.60;99.90;;;;;;5044997;28;19921;-71
2022/11/12 15:31:02;;;;;;;;;;;10.60;99.90;;;;;;5045088;28;19959;-71
2022/11/12 15:33:29;;;;;;;;;;;10.50;99.90;;;;;;5044745;28;19966;-70
2022/11/12 15:35:57;;;;;;;;;;;10.50;99.90;;;;;;5044492;28;19929;-70
2022/11/12 15:38:25;;;;;;;;;;;10.50;99.90;;;;;;5044541;28;19979;-70
2022/11/12 15:40:53;;;;;;;;;;;10.50;99.90;;;;;;5044920;28;19988;-70
2022/11/12 15:43:23;;;;;;;;;;;10.50;99.90;;;;;;5044581;28;20211;-70